Henefer, Utah
Current Conditions -  °F | °C
As of 12:58 PM on Friday 28 Nov 2014 (Local Time) from KHIF Reporting Station
Clear Clear  
Wind Chill: 60°   Ceiling: Unl
Heat Index: 60°   Visibility: 10mi
Dew Point: 20°   Wind: 13mph
Humidity: 21%   Direction: 180°S
Pressure: 29.93"   Gusts: NA
Location:  41.02°N, 111.5°W
Report Text: KHIF 281958Z AUTO 18011KT 10SM CLR 15/M07 A2993 RMK AO2 SLP108 T01541068
Loading
Personal Weather Stations






























Interactive Weather Map New forecast layout! Learn more

10-Day Weather Forecast

Advertisements
Track Severe Weather on mobile